createdAt,value
2018-07-05T00:02:09.033Z,4.02
2018-07-05T00:04:48.936Z,4.16
2018-07-05T00:07:29.692Z,4.30
2018-07-05T00:10:09.859Z,4.26
2018-07-05T00:12:50.805Z,4.20
2018-07-05T00:15:30.815Z,4.20
2018-07-05T00:18:10.872Z,4.32
2018-07-05T00:20:51.919Z,4.48
2018-07-05T00:23:33.134Z,3.98
2018-07-05T00:26:13.188Z,4.52
2018-07-05T00:28:53.188Z,4.24
2018-07-05T00:31:33.324Z,4.18
2018-07-05T00:34:13.346Z,4.32
2018-07-05T00:36:53.317Z,4.46
2018-07-05T00:39:33.339Z,4.32
2018-07-05T00:42:13.452Z,4.32
2018-07-05T00:44:56.628Z,4.80
2018-07-05T00:47:37.864Z,4.96
2018-07-05T00:50:18.005Z,4.18
2018-07-05T00:52:58.256Z,5.08
2018-07-05T00:55:37.487Z,4.54
2018-07-05T00:58:17.554Z,4.22
2018-07-05T01:00:58.397Z,4.30
2018-07-05T01:03:38.472Z,4.54
2018-07-05T01:06:18.433Z,4.44
2018-07-05T01:08:58.361Z,4.78
2018-07-05T01:11:38.469Z,4.94
2018-07-05T01:14:18.557Z,6.08
2018-07-05T01:16:58.770Z,5.82
2018-07-05T01:19:38.719Z,5.28
2018-07-05T01:22:18.854Z,5.00
2018-07-05T01:24:59.737Z,4.84
2018-07-05T01:27:39.981Z,5.54
2018-07-05T01:30:20.867Z,5.26
2018-07-05T01:33:01.427Z,5.68
2018-07-05T01:35:41.465Z,5.52
2018-07-05T01:38:25.462Z,5.50
2018-07-05T01:41:05.674Z,5.74
2018-07-05T01:43:45.681Z,5.66
2018-07-05T01:46:25.902Z,5.22
2018-07-05T01:49:06.314Z,5.32
2018-07-05T01:51:46.410Z,6.18
2018-07-05T01:54:27.521Z,5.50
2018-07-05T01:57:07.668Z,5.12
2018-07-05T01:59:49.845Z,6.70
2018-07-05T02:02:30.612Z,6.28
2018-07-05T02:05:10.712Z,6.02
2018-07-05T02:07:51.945Z,4.68
2018-07-05T02:10:32.133Z,5.24
2018-07-05T02:13:12.267Z,5.18
2018-07-05T02:15:52.118Z,6.30
2018-07-05T02:18:32.268Z,6.52
2018-07-05T02:21:12.270Z,5.72
2018-07-05T02:23:52.454Z,5.98
2018-07-05T02:26:32.631Z,5.52
2018-07-05T02:29:12.791Z,5.44
2018-07-05T02:31:52.866Z,5.20
2018-07-05T02:34:33.061Z,4.98
2018-07-05T02:37:13.120Z,5.68
2018-07-05T02:39:53.356Z,5.52
2018-07-05T02:42:33.365Z,5.58
2018-07-05T02:45:13.459Z,6.42
2018-07-05T02:47:53.717Z,6.06
2018-07-05T02:50:35.318Z,6.20
2018-07-05T02:53:14.608Z,5.40
2018-07-05T02:55:54.758Z,5.94
2018-07-05T02:58:34.867Z,5.92
2018-07-05T03:01:15.018Z,6.26
2018-07-05T03:03:55.091Z,5.80
2018-07-05T03:06:35.204Z,6.74
2018-07-05T03:09:15.248Z,6.74
2018-07-05T03:11:55.384Z,6.20
2018-07-05T03:14:39.109Z,7.18
2018-07-05T03:17:19.285Z,6.82
2018-07-05T03:19:59.766Z,6.12
2018-07-05T03:22:39.938Z,8.06
2018-07-05T03:25:20.786Z,6.78
2018-07-05T03:28:00.905Z,7.14
2018-07-05T03:30:41.022Z,6.46
2018-07-05T03:33:21.058Z,6.96
2018-07-05T03:36:01.369Z,7.56
2018-07-05T03:38:41.407Z,6.98
2018-07-05T03:41:21.664Z,7.90
2018-07-05T03:44:01.769Z,7.88
2018-07-05T03:46:41.865Z,7.90
2018-07-05T03:49:22.072Z,7.04
2018-07-05T03:52:02.110Z,6.96
2018-07-05T03:54:42.229Z,7.04
2018-07-05T03:57:22.204Z,7.64
2018-07-05T04:00:02.343Z,8.08
2018-07-05T04:02:42.626Z,7.70
2018-07-05T04:05:22.976Z,7.38
2018-07-05T04:08:02.285Z,7.52
2018-07-05T04:10:42.547Z,7.30
2018-07-05T04:13:24.992Z,8.18
2018-07-05T04:16:05.546Z,6.82
2018-07-05T04:18:45.685Z,7.48
2018-07-05T04:21:25.712Z,7.62
2018-07-05T04:24:05.912Z,7.54
2018-07-05T04:26:46.026Z,7.14
2018-07-05T04:29:26.083Z,7.32
2018-07-05T04:32:06.224Z,7.18
2018-07-05T04:34:46.216Z,8.02
2018-07-05T04:37:26.314Z,7.34
2018-07-05T04:40:06.424Z,7.48
2018-07-05T04:42:46.669Z,7.22
2018-07-05T04:45:26.825Z,7.42
2018-07-05T04:48:07.357Z,8.16
2018-07-05T04:50:47.534Z,8.22
2018-07-05T04:53:26.829Z,7.76
2018-07-05T04:56:06.996Z,8.18
2018-07-05T04:58:47.086Z,7.08
2018-07-05T05:01:27.072Z,8.48
2018-07-05T05:04:07.752Z,7.08
2018-07-05T05:06:48.062Z,7.54
2018-07-05T05:09:28.151Z,8.48
2018-07-05T05:12:08.441Z,7.78
2018-07-05T05:14:48.701Z,8.02
2018-07-05T05:17:28.698Z,7.90
2018-07-05T05:20:08.784Z,10.20
2018-07-05T05:22:48.774Z,8.92
2018-07-05T05:25:29.409Z,8.48
2018-07-05T05:28:09.541Z,8.58
2018-07-05T05:30:49.717Z,8.64
2018-07-05T05:33:29.848Z,8.16
2018-07-05T05:36:10.021Z,8.66
2018-07-05T05:38:50.573Z,8.32
2018-07-05T05:41:31.119Z,8.76
2018-07-05T05:44:10.395Z,8.34
2018-07-05T05:46:51.353Z,10.08
2018-07-05T05:49:31.480Z,11.26
2018-07-05T05:52:12.417Z,10.28
2018-07-05T05:54:52.493Z,11.84
2018-07-05T05:57:32.714Z,11.78
2018-07-05T06:00:12.887Z,11.28
2018-07-05T06:02:52.181Z,12.54
2018-07-05T06:05:32.229Z,12.10
2018-07-05T06:08:12.417Z,12.72
2018-07-05T06:10:52.487Z,13.94
2018-07-05T06:13:32.468Z,14.56
2018-07-05T06:16:12.561Z,13.42
2018-07-05T06:18:56.470Z,16.44
2018-07-05T06:21:36.679Z,14.80
2018-07-05T06:24:16.708Z,14.56
2018-07-05T06:26:56.767Z,14.56
2018-07-05T06:29:38.211Z,15.52
2018-07-05T06:32:18.286Z,19.64
2018-07-05T06:34:58.446Z,16.54
2018-07-05T06:37:38.516Z,15.78
2018-07-05T06:40:18.709Z,17.60
2018-07-05T06:42:58.743Z,15.28
2018-07-05T06:48:34.553Z,14.84
2018-07-05T06:51:15.593Z,14.88
2018-07-05T06:53:55.744Z,14.86
2018-07-05T06:56:46.088Z,14.10
2018-07-05T06:59:27.105Z,15.14
2018-07-05T07:02:15.890Z,17.28
2018-07-05T07:05:04.266Z,17.34
2018-07-05T07:07:44.320Z,14.28
2018-07-05T07:10:24.336Z,13.96
2018-07-05T07:13:04.503Z,13.10
2018-07-05T07:15:45.725Z,14.42
2018-07-05T07:18:26.813Z,15.34
2018-07-05T07:21:08.073Z,15.82
2018-07-05T07:23:48.212Z,15.50
2018-07-05T07:26:34.961Z,18.34
2018-07-05T07:29:15.121Z,19.80
2018-07-05T07:31:55.361Z,20.14
2018-07-05T07:34:35.585Z,19.74
2018-07-05T07:37:15.789Z,21.04
2018-07-05T07:39:56.060Z,23.12
2018-07-05T07:42:23.884Z,17.84
2018-07-05T07:44:58.893Z,17.64
2018-07-05T07:47:26.706Z,17.62
2018-07-05T07:49:58.773Z,16.30
2018-07-05T07:52:26.598Z,16.06
2018-07-05T07:54:57.633Z,15.74
2018-07-05T07:57:25.432Z,15.50
2018-07-05T07:59:53.205Z,13.68
2018-07-05T08:02:21.771Z,17.44
2018-07-05T08:04:49.609Z,13.02
2018-07-05T08:07:17.386Z,13.72
2018-07-05T08:09:45.165Z,13.30
2018-07-05T08:12:12.969Z,13.52
2018-07-05T08:14:40.732Z,12.64
2018-07-05T08:17:08.537Z,13.30
2018-07-05T08:19:36.313Z,12.48
2018-07-05T08:22:04.115Z,11.78
2018-07-05T08:24:31.890Z,11.86
2018-07-05T08:27:00.366Z,12.72
2018-07-05T08:29:28.129Z,11.20
2018-07-05T08:31:55.940Z,11.22
2018-07-05T08:34:23.739Z,10.88
2018-07-05T08:36:52.527Z,10.46
2018-07-05T08:39:20.337Z,8.38
2018-07-05T08:41:48.101Z,7.54
2018-07-05T08:44:15.915Z,8.58
2018-07-05T08:46:43.693Z,9.26
2018-07-05T08:49:11.492Z,9.30
2018-07-05T08:51:39.265Z,9.18
2018-07-05T08:54:07.070Z,9.08
2018-07-05T08:56:34.839Z,10.30
2018-07-05T08:59:02.630Z,8.82
2018-07-05T09:01:30.390Z,8.10
2018-07-05T09:03:58.190Z,8.16
2018-07-05T09:06:25.991Z,7.88
2018-07-05T09:08:53.769Z,6.48
2018-07-05T09:11:22.866Z,7.56
2018-07-05T09:13:49.931Z,6.54
2018-07-05T09:16:17.701Z,8.80
2018-07-05T09:18:45.508Z,6.62
2018-07-05T09:21:19.382Z,6.72
2018-07-05T09:23:47.196Z,6.54
2018-07-05T09:26:23.053Z,6.88
2018-07-05T09:28:52.590Z,6.68
2018-07-05T09:31:20.350Z,5.84
2018-07-05T09:33:48.149Z,8.10
2018-07-05T09:36:15.921Z,8.38
2018-07-05T09:38:43.713Z,7.06
2018-07-05T09:41:11.480Z,8.44
2018-07-05T09:43:38.609Z,7.30
2018-07-05T09:46:06.396Z,7.36
2018-07-05T09:48:34.160Z,7.22
2018-07-05T09:51:01.957Z,7.80
2018-07-05T09:53:30.821Z,7.98
2018-07-05T09:55:58.613Z,7.34
2018-07-05T09:58:26.377Z,6.80
2018-07-05T10:00:54.180Z,7.60
2018-07-05T10:03:22.865Z,7.28
2018-07-05T10:05:50.589Z,6.64
2018-07-05T10:08:22.592Z,5.92
2018-07-05T10:10:50.353Z,7.10
2018-07-05T10:13:18.176Z,6.76
2018-07-05T10:15:45.928Z,7.66
2018-07-05T10:18:13.731Z,7.80
2018-07-05T10:20:41.504Z,6.42
2018-07-05T10:23:09.302Z,7.78
2018-07-05T10:25:37.066Z,8.06
2018-07-05T10:28:04.867Z,6.38
2018-07-05T10:30:44.894Z,6.22
2018-07-05T10:33:25.049Z,6.54
2018-07-05T10:35:52.852Z,5.30
2018-07-05T10:38:20.625Z,5.90
2018-07-05T10:41:01.841Z,6.12
2018-07-05T10:43:41.845Z,6.34
2018-07-05T10:46:22.881Z,6.60
2018-07-05T10:49:02.933Z,6.46
2018-07-05T10:51:43.065Z,6.28
2018-07-05T10:54:24.066Z,5.90
2018-07-05T10:57:04.951Z,5.78
2018-07-05T10:59:45.910Z,7.24
2018-07-05T11:02:25.996Z,7.04
2018-07-05T11:05:05.946Z,6.72
2018-07-05T11:07:45.949Z,6.24
2018-07-05T11:10:25.965Z,6.50
2018-07-05T11:13:06.105Z,6.62
2018-07-05T11:15:46.156Z,5.46
2018-07-05T11:18:26.350Z,5.46
2018-07-05T11:21:06.370Z,6.64
2018-07-05T11:23:46.496Z,6.20
2018-07-05T11:26:26.454Z,6.14
2018-07-05T11:29:06.549Z,7.12
2018-07-05T11:31:46.640Z,6.04
2018-07-05T11:34:27.692Z,5.50
2018-07-05T11:37:07.830Z,6.50
2018-07-05T11:39:48.437Z,6.62
2018-07-05T11:42:28.414Z,6.20
2018-07-05T11:45:08.494Z,5.80
2018-07-05T11:47:48.692Z,6.12
2018-07-05T11:50:29.192Z,5.12
2018-07-05T11:53:09.372Z,6.90
2018-07-05T11:55:48.785Z,5.72
2018-07-05T11:58:28.897Z,5.20
2018-07-05T12:01:08.994Z,4.88
2018-07-05T12:03:48.986Z,4.40
2018-07-05T12:06:29.191Z,5.24
2018-07-05T12:09:08.624Z,4.66
2018-07-05T12:11:48.826Z,4.38
2018-07-05T12:14:32.833Z,4.32
2018-07-05T12:17:12.931Z,4.60
2018-07-05T12:19:53.037Z,4.42
2018-07-05T12:22:32.997Z,4.64
2018-07-05T12:25:13.214Z,4.36
2018-07-05T12:27:53.835Z,4.00
2018-07-05T12:30:34.026Z,4.50
2018-07-05T12:33:14.185Z,3.50
2018-07-05T12:35:55.148Z,4.20
2018-07-05T12:38:35.398Z,4.50
2018-07-05T12:41:19.073Z,4.10
2018-07-05T12:44:02.597Z,3.72
2018-07-05T12:46:48.670Z,4.24
2018-07-05T12:49:29.180Z,4.48
2018-07-05T12:52:12.913Z,4.34
2018-07-05T12:54:53.117Z,4.36
2018-07-05T12:57:35.325Z,3.92
2018-07-05T13:00:17.458Z,4.36
2018-07-05T13:02:57.868Z,4.34
2018-07-05T13:05:38.022Z,4.60
2018-07-05T13:08:18.408Z,5.72
2018-07-05T13:10:59.974Z,5.10
2018-07-05T13:13:40.162Z,4.76
2018-07-05T13:16:22.649Z,5.10
2018-07-05T13:19:06.030Z,5.36
2018-07-05T13:21:53.055Z,4.76
2018-07-05T13:24:33.286Z,4.50
2018-07-05T13:27:13.337Z,4.16
2018-07-05T13:29:53.533Z,3.94
2018-07-05T13:32:33.686Z,4.78
2018-07-05T13:35:13.830Z,4.06
2018-07-05T13:37:53.947Z,3.80
2018-07-05T13:40:34.592Z,4.80
2018-07-05T13:43:14.824Z,3.84
2018-07-05T13:45:54.829Z,4.52
2018-07-05T13:48:35.021Z,4.48
2018-07-05T13:51:15.029Z,3.90
2018-07-05T13:53:55.217Z,3.78
2018-07-05T13:56:34.373Z,5.06
2018-07-05T13:59:14.579Z,4.80
2018-07-05T14:01:54.616Z,4.98
2018-07-05T14:04:37.760Z,5.30
2018-07-05T14:07:17.777Z,4.10
2018-07-05T14:09:57.766Z,4.54
2018-07-05T14:12:37.830Z,4.38
2018-07-05T14:15:17.895Z,4.88
2018-07-05T14:17:57.992Z,4.94
2018-07-05T14:20:38.345Z,4.66
2018-07-05T14:23:18.623Z,5.06
2018-07-05T14:25:58.617Z,4.86
2018-07-05T14:28:38.053Z,4.64
2018-07-05T14:31:18.025Z,4.86
2018-07-05T14:33:58.148Z,4.68
2018-07-05T14:36:38.676Z,4.44
2018-07-05T14:39:18.810Z,5.18
2018-07-05T14:41:58.690Z,4.50
2018-07-05T14:44:41.838Z,5.16
2018-07-05T14:47:22.098Z,4.80
2018-07-05T14:50:02.144Z,5.26
2018-07-05T14:52:42.174Z,4.94
2018-07-05T14:55:22.337Z,5.56
2018-07-05T14:58:02.512Z,4.70
2018-07-05T15:00:42.510Z,5.08
2018-07-05T15:03:22.650Z,5.52
2018-07-05T15:06:02.686Z,5.30
2018-07-05T15:08:42.794Z,5.76
2018-07-05T15:11:22.909Z,4.86
2018-07-05T15:14:02.945Z,5.12
2018-07-05T15:16:42.274Z,4.76
2018-07-05T15:19:22.278Z,5.10
2018-07-05T15:22:02.500Z,5.18
2018-07-05T15:24:46.143Z,4.78
2018-07-05T15:27:26.342Z,4.50
2018-07-05T15:30:06.322Z,4.98
2018-07-05T15:32:46.456Z,4.22
2018-07-05T15:35:26.413Z,4.04
2018-07-05T15:38:06.704Z,4.14
2018-07-05T15:40:46.685Z,3.90
2018-07-05T15:43:26.704Z,5.24
2018-07-05T15:46:06.699Z,4.48
2018-07-05T15:48:46.781Z,5.18
2018-07-05T15:51:26.802Z,4.84
2018-07-05T15:54:06.940Z,4.52
2018-07-05T15:56:48.037Z,4.50
2018-07-05T15:59:28.172Z,5.10
2018-07-05T16:02:08.213Z,5.78
2018-07-05T16:04:47.546Z,4.58
2018-07-05T16:07:27.571Z,4.90
2018-07-05T16:10:07.745Z,4.48
2018-07-05T16:12:47.825Z,4.20
2018-07-05T16:15:27.822Z,4.22
2018-07-05T16:18:07.977Z,4.18
2018-07-05T16:20:48.125Z,4.50
2018-07-05T16:23:29.276Z,4.08
2018-07-05T16:26:09.512Z,3.88
2018-07-05T16:28:49.665Z,3.74
2018-07-05T16:31:30.078Z,3.78
2018-07-05T16:34:10.152Z,3.68
2018-07-05T16:36:50.307Z,3.78
2018-07-05T16:39:31.033Z,4.38
2018-07-05T16:42:10.965Z,4.22
2018-07-05T16:44:52.081Z,4.78
2018-07-05T16:47:32.140Z,4.32
2018-07-05T16:50:12.212Z,3.82
2018-07-05T16:52:52.230Z,3.90
2018-07-05T16:55:32.348Z,4.30
2018-07-05T16:58:12.458Z,4.32
2018-07-05T17:00:52.425Z,3.80
2018-07-05T17:03:32.593Z,4.12
2018-07-05T17:06:12.672Z,3.84
2018-07-05T17:08:52.692Z,3.94
2018-07-05T17:11:32.693Z,4.18
2018-07-05T17:14:12.864Z,3.92
2018-07-05T17:16:52.838Z,4.08
2018-07-05T17:19:32.105Z,3.50
2018-07-05T17:22:12.064Z,3.90
2018-07-05T17:24:52.513Z,3.70
2018-07-05T17:27:32.593Z,3.26
2018-07-05T17:30:12.743Z,3.24
2018-07-05T17:32:52.741Z,2.92
2018-07-05T17:35:32.955Z,3.06
2018-07-05T17:38:13.140Z,2.96
2018-07-05T17:40:53.181Z,3.10
2018-07-05T17:43:33.297Z,3.48
2018-07-05T17:46:14.334Z,3.40
2018-07-05T17:48:54.424Z,3.06
2018-07-05T17:51:34.572Z,2.58
2018-07-05T17:54:14.720Z,3.14
2018-07-05T17:56:54.084Z,2.38
2018-07-05T17:59:34.116Z,3.02
2018-07-05T18:02:14.225Z,2.94
2018-07-05T18:04:54.323Z,2.80
2018-07-05T18:07:35.080Z,2.70
2018-07-05T18:10:15.204Z,2.78
2018-07-05T18:12:55.422Z,2.94
2018-07-05T18:15:34.714Z,2.92
2018-07-05T18:18:15.027Z,3.20
2018-07-05T18:20:54.994Z,2.90
2018-07-05T18:23:35.100Z,2.90
2018-07-05T18:26:14.237Z,2.58
2018-07-05T18:28:54.237Z,2.84
2018-07-05T18:31:35.300Z,2.72
2018-07-05T18:34:19.491Z,2.40
2018-07-05T18:36:58.738Z,2.60
2018-07-05T18:39:38.822Z,2.98
2018-07-05T18:42:18.769Z,2.62
2018-07-05T18:44:58.923Z,2.80
2018-07-05T18:47:39.023Z,2.28
2018-07-05T18:50:19.126Z,2.62
2018-07-05T18:52:59.294Z,3.00
2018-07-05T18:55:39.464Z,2.58
2018-07-05T18:58:19.426Z,2.78
2018-07-05T19:01:00.174Z,2.44
2018-07-05T19:03:40.288Z,2.34
2018-07-05T19:06:21.723Z,2.64
2018-07-05T19:09:01.890Z,2.70
2018-07-05T19:11:41.830Z,2.60
2018-07-05T19:14:23.389Z,2.40
2018-07-05T19:17:03.336Z,2.54
2018-07-05T19:19:44.548Z,3.08
2018-07-05T19:22:24.517Z,2.74
2018-07-05T19:25:04.705Z,2.34
2018-07-05T19:27:44.623Z,2.68
2018-07-05T19:30:24.809Z,2.60
2018-07-05T19:33:05.013Z,2.48
2018-07-05T19:35:45.203Z,2.72
2018-07-05T19:38:25.124Z,2.48
2018-07-05T19:41:05.381Z,2.58
2018-07-05T19:43:45.620Z,2.66
2018-07-05T19:46:25.681Z,3.26
2018-07-05T19:49:05.832Z,2.78
2018-07-05T19:51:45.889Z,3.28
2018-07-05T19:54:26.051Z,2.94
2018-07-05T19:57:06.066Z,3.08
2018-07-05T19:59:46.128Z,3.50
2018-07-05T20:02:26.288Z,3.10
2018-07-05T20:05:06.161Z,2.52
2018-07-05T20:07:46.318Z,2.64
2018-07-05T20:10:26.349Z,2.70
2018-07-05T20:13:07.213Z,3.36
2018-07-05T20:15:47.326Z,2.98
2018-07-05T20:18:26.611Z,3.30
2018-07-05T20:21:06.612Z,2.70
2018-07-05T20:23:46.663Z,2.90
2018-07-05T20:26:26.628Z,2.98
2018-07-05T20:29:06.853Z,3.00
2018-07-05T20:31:46.893Z,3.22
2018-07-05T20:34:26.261Z,3.20
2018-07-05T20:37:06.144Z,3.38
2018-07-05T20:39:46.353Z,2.78
2018-07-05T20:42:26.409Z,3.00
2018-07-05T20:45:06.582Z,3.18
2018-07-05T20:47:46.546Z,2.80
2018-07-05T20:50:26.432Z,3.60
2018-07-05T20:53:06.704Z,3.34
2018-07-05T20:55:46.713Z,3.40
2018-07-05T20:58:26.845Z,3.62
2018-07-05T21:01:08.169Z,3.70
2018-07-05T21:03:48.296Z,3.80
2018-07-05T21:06:28.998Z,3.42
2018-07-05T21:09:09.026Z,2.92
2018-07-05T21:11:49.160Z,3.02
2018-07-05T21:14:32.843Z,4.08
2018-07-05T21:17:13.036Z,2.88
2018-07-05T21:19:56.793Z,3.62
2018-07-05T21:22:36.774Z,3.66
2018-07-05T21:25:18.956Z,4.50
2018-07-05T21:27:58.981Z,3.44
2018-07-05T21:30:40.009Z,3.50
2018-07-05T21:33:20.204Z,3.06
2018-07-05T21:36:01.419Z,3.00
2018-07-05T21:38:41.408Z,3.94
2018-07-05T21:41:22.593Z,3.60
2018-07-05T21:44:02.760Z,3.82
2018-07-05T21:46:42.921Z,3.92
2018-07-05T21:49:28.682Z,3.50
2018-07-05T21:52:08.747Z,3.90
2018-07-05T21:54:48.865Z,3.38
2018-07-05T21:57:32.427Z,3.28
2018-07-05T22:00:12.573Z,3.50
2018-07-05T22:02:52.733Z,3.72
2018-07-05T22:05:32.724Z,3.38
2018-07-05T22:08:12.884Z,3.60
2018-07-05T22:10:52.868Z,3.54
2018-07-05T22:13:32.964Z,3.60
2018-07-05T22:16:13.168Z,3.46
2018-07-05T22:19:08.153Z,3.50
2018-07-05T22:21:48.209Z,3.84
2018-07-05T22:24:37.743Z,3.96
2018-07-05T22:27:17.894Z,3.82
2018-07-05T22:30:15.516Z,4.02
2018-07-05T22:32:55.617Z,4.06
2018-07-05T22:35:35.531Z,3.60
2018-07-05T22:38:15.765Z,4.44
2018-07-05T22:40:55.765Z,4.22
2018-07-05T22:43:36.072Z,4.54
2018-07-05T22:46:16.104Z,5.36
2018-07-05T22:48:56.290Z,4.64
2018-07-05T22:51:36.766Z,4.38
2018-07-05T22:54:16.735Z,4.58
2018-07-05T22:56:56.763Z,3.88
2018-07-05T22:59:37.020Z,5.40
2018-07-05T23:02:17.065Z,4.00
2018-07-05T23:05:00.403Z,4.88
2018-07-05T23:07:40.602Z,4.88
2018-07-05T23:10:21.834Z,4.96
2018-07-05T23:13:01.897Z,4.28
2018-07-05T23:15:42.098Z,4.76
2018-07-05T23:18:22.185Z,4.34
2018-07-05T23:21:02.282Z,5.06
2018-07-05T23:23:42.312Z,4.78
2018-07-05T23:26:22.572Z,5.48
2018-07-05T23:29:02.637Z,5.44
2018-07-05T23:31:42.926Z,5.00
2018-07-05T23:34:22.414Z,5.56
2018-07-05T23:37:02.289Z,5.12
2018-07-05T23:39:42.407Z,6.46
2018-07-05T23:42:22.572Z,5.58
2018-07-05T23:45:02.469Z,5.20
2018-07-05T23:47:42.613Z,4.56
2018-07-05T23:50:22.769Z,4.90
2018-07-05T23:53:02.837Z,5.38
2018-07-05T23:55:42.954Z,5.82
2018-07-05T23:58:23.192Z,5.46
